Terminal Aerodrome Forecast
Issued by NWS Albuquerque, NM

Home | Current Version | Previous Version | Text Only | Print | Product List | Glossary On
Versions: 1 2 3 4 5 6 7 8 9 10 11 12 13 14 15 16 17 18 19 20
000
FTUS45 KABQ 010500
TAFABQ
TAF
KABQ 010526Z 0106/0206 12015KT P6SM FEW060 BKN120
     FM012000 18010KT P6SM VCTS BKN050CB OVC100
     FM012300 15015G25KT P6SM VCSH BKN040 OVC080
     FM020300 09015G25KT P6SM VCSH BKN040 OVC080=

USA.gov is the U.S. government's official web portal to all federal, state and local government web resources and services.